sensor_id;sensor_type;location;lat;lon;timestamp;P1;durP1;ratioP1;P2;durP2;ratioP2
60896;SDS011;46749;32.932;-117.130;2023-02-17T00:01:13;0.28;;;0.20;;
60896;SDS011;46749;32.932;-117.130;2023-02-17T00:03:45;0.85;;;0.28;;
60896;SDS011;46749;32.932;-117.130;2023-02-17T00:06:13;0.30;;;0.30;;
60896;SDS011;46749;32.932;-117.130;2023-02-17T00:08:40;1.00;;;0.32;;
60896;SDS011;46749;32.932;-117.130;2023-02-17T00:11:06;0.20;;;0.20;;
60896;SDS011;46749;32.932;-117.130;2023-02-17T00:13:32;0.47;;;0.30;;
60896;SDS011;46749;32.932;-117.130;2023-02-17T00:15:59;0.30;;;0.30;;
60896;SDS011;46749;32.932;-117.130;2023-02-17T00:18:31;1.08;;;0.30;;
60896;SDS011;46749;32.932;-117.130;2023-02-17T00:20:57;1.02;;;0.40;;
60896;SDS011;46749;32.932;-117.130;2023-02-17T00:23:23;1.25;;;0.40;;
60896;SDS011;46749;32.932;-117.130;2023-02-17T00:25:49;0.35;;;0.28;;
60896;SDS011;46749;32.932;-117.130;2023-02-17T00:28:16;0.30;;;0.30;;
60896;SDS011;46749;32.932;-117.130;2023-02-17T00:30:42;0.77;;;0.40;;
60896;SDS011;46749;32.932;-117.130;2023-02-17T00:33:08;0.30;;;0.30;;
60896;SDS011;46749;32.932;-117.130;2023-02-17T00:35:37;0.95;;;0.20;;
60896;SDS011;46749;32.932;-117.130;2023-02-17T00:38:05;1.58;;;0.73;;
60896;SDS011;46749;32.932;-117.130;2023-02-17T00:40:31;0.95;;;0.30;;
60896;SDS011;46749;32.932;-117.130;2023-02-17T00:42:57;0.43;;;0.40;;
60896;SDS011;46749;32.932;-117.130;2023-02-17T00:45:24;0.85;;;0.20;;
60896;SDS011;46749;32.932;-117.130;2023-02-17T00:47:50;0.50;;;0.30;;
60896;SDS011;46749;32.932;-117.130;2023-02-17T00:50:16;1.02;;;0.22;;
60896;SDS011;46749;32.932;-117.130;2023-02-17T00:52:42;0.22;;;0.20;;
60896;SDS011;46749;32.932;-117.130;2023-02-17T00:55:08;0.28;;;0.28;;
60896;SDS011;46749;32.932;-117.130;2023-02-17T00:57:34;0.63;;;0.30;;
60896;SDS011;46749;32.932;-117.130;2023-02-17T01:00:01;0.73;;;0.38;;
60896;SDS011;46749;32.932;-117.130;2023-02-17T01:02:28;0.40;;;0.20;;
60896;SDS011;46749;32.932;-117.130;2023-02-17T01:04:54;1.90;;;0.40;;
60896;SDS011;46749;32.932;-117.130;2023-02-17T01:07:20;0.20;;;0.20;;
60896;SDS011;46749;32.932;-117.130;2023-02-17T01:09:47;0.60;;;0.30;;
60896;SDS011;46749;32.932;-117.130;2023-02-17T01:12:13;0.30;;;0.30;;
60896;SDS011;46749;32.932;-117.130;2023-02-17T01:14:39;0.70;;;0.30;;
60896;SDS011;46749;32.932;-117.130;2023-02-17T01:17:05;0.28;;;0.28;;
60896;SDS011;46749;32.932;-117.130;2023-02-17T01:19:32;0.17;;;0.17;;
60896;SDS011;46749;32.932;-117.130;2023-02-17T01:21:58;0.30;;;0.30;;
60896;SDS011;46749;32.932;-117.130;2023-02-17T01:24:24;0.30;;;0.20;;
60896;SDS011;46749;32.932;-117.130;2023-02-17T01:26:50;0.57;;;0.32;;
60896;SDS011;46749;32.932;-117.130;2023-02-17T01:29:17;0.85;;;0.40;;
60896;SDS011;46749;32.932;-117.130;2023-02-17T01:31:43;0.22;;;0.20;;
60896;SDS011;46749;32.932;-117.130;2023-02-17T01:34:10;0.77;;;0.45;;
60896;SDS011;46749;32.932;-117.130;2023-02-17T01:36:36;0.38;;;0.38;;
60896;SDS011;46749;32.932;-117.130;2023-02-17T01:39:02;0.63;;;0.30;;
60896;SDS011;46749;32.932;-117.130;2023-02-17T01:41:29;0.20;;;0.20;;
60896;SDS011;46749;32.932;-117.130;2023-02-17T01:44:02;0.30;;;0.25;;
60896;SDS011;46749;32.932;-117.130;2023-02-17T01:46:39;0.28;;;0.28;;
60896;SDS011;46749;32.932;-117.130;2023-02-17T01:49:52;0.40;;;0.30;;
60896;SDS011;46749;32.932;-117.130;2023-02-17T01:52:10;0.20;;;0.20;;
60896;SDS011;46749;32.932;-117.130;2023-02-17T01:54:53;0.40;;;0.30;;
60896;SDS011;46749;32.932;-117.130;2023-02-17T01:57:23;0.35;;;0.20;;
60896;SDS011;46749;32.932;-117.130;2023-02-17T01:59:55;0.85;;;0.40;;
60896;SDS011;46749;32.932;-117.130;2023-02-17T02:02:21;0.40;;;0.20;;
60896;SDS011;46749;32.932;-117.130;2023-02-17T02:04:48;0.30;;;0.30;;
60896;SDS011;46749;32.932;-117.130;2023-02-17T02:07:19;0.70;;;0.30;;
60896;SDS011;46749;32.932;-117.130;2023-02-17T02:09:54;0.40;;;0.30;;
60896;SDS011;46749;32.932;-117.130;2023-02-17T02:15:02;0.47;;;0.40;;
60896;SDS011;46749;32.932;-117.130;2023-02-17T02:34:44;1.95;;;0.75;;
60896;SDS011;46749;32.932;-117.130;2023-02-17T02:37:25;4.63;;;0.80;;
60896;SDS011;46749;32.932;-117.130;2023-02-17T02:39:56;1.70;;;0.90;;
60896;SDS011;46749;32.932;-117.130;2023-02-17T02:42:28;1.58;;;0.60;;
60896;SDS011;46749;32.932;-117.130;2023-02-17T02:44:55;1.45;;;0.75;;
60896;SDS011;46749;32.932;-117.130;2023-02-17T02:47:39;1.38;;;0.50;;
60896;SDS011;46749;32.932;-117.130;2023-02-17T02:50:18;1.98;;;0.73;;
60896;SDS011;46749;32.932;-117.130;2023-02-17T02:58:05;0.90;;;0.50;;
60896;SDS011;46749;32.932;-117.130;2023-02-17T03:00:57;1.42;;;0.60;;
60896;SDS011;46749;32.932;-117.130;2023-02-17T03:03:56;1.15;;;0.52;;
60896;SDS011;46749;32.932;-117.130;2023-02-17T03:06:29;1.52;;;0.70;;
60896;SDS011;46749;32.932;-117.130;2023-02-17T03:09:22;1.33;;;0.70;;
60896;SDS011;46749;32.932;-117.130;2023-02-17T03:11:49;1.63;;;0.60;;
60896;SDS011;46749;32.932;-117.130;2023-02-17T03:14:18;1.63;;;0.60;;
60896;SDS011;46749;32.932;-117.130;2023-02-17T03:16:46;1.10;;;0.50;;
60896;SDS011;46749;32.932;-117.130;2023-02-17T03:19:14;0.98;;;0.50;;
60896;SDS011;46749;32.932;-117.130;2023-02-17T03:21:56;1.00;;;0.63;;
60896;SDS011;46749;32.932;-117.130;2023-02-17T03:24:34;1.38;;;0.50;;
60896;SDS011;46749;32.932;-117.130;2023-02-17T03:27:00;1.85;;;0.50;;
60896;SDS011;46749;32.932;-117.130;2023-02-17T03:29:27;1.27;;;0.65;;
60896;SDS011;46749;32.932;-117.130;2023-02-17T03:31:53;1.50;;;0.70;;
60896;SDS011;46749;32.932;-117.130;2023-02-17T03:34:20;1.15;;;0.60;;
60896;SDS011;46749;32.932;-117.130;2023-02-17T03:36:46;1.95;;;0.73;;
60896;SDS011;46749;32.932;-117.130;2023-02-17T03:39:12;0.60;;;0.32;;
60896;SDS011;46749;32.932;-117.130;2023-02-17T03:41:38;1.98;;;0.50;;
60896;SDS011;46749;32.932;-117.130;2023-02-17T03:44:04;0.93;;;0.60;;
60896;SDS011;46749;32.932;-117.130;2023-02-17T03:46:31;1.25;;;0.60;;
60896;SDS011;46749;32.932;-117.130;2023-02-17T03:48:57;0.70;;;0.35;;
60896;SDS011;46749;32.932;-117.130;2023-02-17T03:51:23;0.85;;;0.50;;
60896;SDS011;46749;32.932;-117.130;2023-02-17T03:53:50;0.93;;;0.40;;
60896;SDS011;46749;32.932;-117.130;2023-02-17T03:56:16;0.75;;;0.40;;
60896;SDS011;46749;32.932;-117.130;2023-02-17T03:58:43;0.50;;;0.50;;
60896;SDS011;46749;32.932;-117.130;2023-02-17T04:01:10;0.50;;;0.43;;
60896;SDS011;46749;32.932;-117.130;2023-02-17T04:03:37;0.63;;;0.50;;
60896;SDS011;46749;32.932;-117.130;2023-02-17T04:06:04;0.55;;;0.40;;
60896;SDS011;46749;32.932;-117.130;2023-02-17T04:08:31;1.10;;;0.80;;
60896;SDS011;46749;32.932;-117.130;2023-02-17T04:10:59;0.70;;;0.40;;
60896;SDS011;46749;32.932;-117.130;2023-02-17T04:13:26;1.27;;;0.40;;
60896;SDS011;46749;32.932;-117.130;2023-02-17T04:15:53;0.43;;;0.38;;
60896;SDS011;46749;32.932;-117.130;2023-02-17T04:18:20;0.95;;;0.40;;
60896;SDS011;46749;32.932;-117.130;2023-02-17T04:20:47;0.68;;;0.50;;
60896;SDS011;46749;32.932;-117.130;2023-02-17T04:23:15;1.30;;;0.43;;
60896;SDS011;46749;32.932;-117.130;2023-02-17T04:25:42;1.15;;;0.60;;
60896;SDS011;46749;32.932;-117.130;2023-02-17T04:28:09;1.48;;;0.40;;
60896;SDS011;46749;32.932;-117.130;2023-02-17T04:30:36;0.95;;;0.40;;
60896;SDS011;46749;32.932;-117.130;2023-02-17T04:33:02;0.93;;;0.50;;
60896;SDS011;46749;32.932;-117.130;2023-02-17T04:35:30;0.63;;;0.38;;
60896;SDS011;46749;32.932;-117.130;2023-02-17T04:37:56;1.35;;;0.70;;
60896;SDS011;46749;32.932;-117.130;2023-02-17T04:40:22;0.70;;;0.50;;
60896;SDS011;46749;32.932;-117.130;2023-02-17T04:42:48;0.75;;;0.35;;
60896;SDS011;46749;32.932;-117.130;2023-02-17T04:45:15;0.80;;;0.30;;
60896;SDS011;46749;32.932;-117.130;2023-02-17T04:47:41;0.50;;;0.43;;
60896;SDS011;46749;32.932;-117.130;2023-02-17T04:50:07;0.63;;;0.50;;
60896;SDS011;46749;32.932;-117.130;2023-02-17T04:52:34;0.65;;;0.50;;
60896;SDS011;46749;32.932;-117.130;2023-02-17T04:55:02;1.55;;;0.50;;
60896;SDS011;46749;32.932;-117.130;2023-02-17T04:57:29;1.50;;;0.50;;
60896;SDS011;46749;32.932;-117.130;2023-02-17T04:59:55;0.90;;;0.50;;
60896;SDS011;46749;32.932;-117.130;2023-02-17T05:02:21;2.05;;;0.50;;
60896;SDS011;46749;32.932;-117.130;2023-02-17T05:04:51;0.90;;;0.52;;
60896;SDS011;46749;32.932;-117.130;2023-02-17T05:07:18;2.65;;;0.68;;
60896;SDS011;46749;32.932;-117.130;2023-02-17T05:09:44;2.03;;;0.50;;
60896;SDS011;46749;32.932;-117.130;2023-02-17T05:12:11;1.00;;;0.60;;
60896;SDS011;46749;32.932;-117.130;2023-02-17T05:14:37;0.70;;;0.50;;
60896;SDS011;46749;32.932;-117.130;2023-02-17T05:17:03;0.57;;;0.50;;
60896;SDS011;46749;32.932;-117.130;2023-02-17T05:19:29;1.15;;;0.60;;
60896;SDS011;46749;32.932;-117.130;2023-02-17T05:22:16;1.23;;;0.50;;
60896;SDS011;46749;32.932;-117.130;2023-02-17T05:24:42;0.75;;;0.52;;
60896;SDS011;46749;32.932;-117.130;2023-02-17T05:27:08;0.60;;;0.60;;
60896;SDS011;46749;32.932;-117.130;2023-02-17T05:29:35;1.02;;;0.50;;
60896;SDS011;46749;32.932;-117.130;2023-02-17T05:32:16;0.57;;;0.45;;
60896;SDS011;46749;32.932;-117.130;2023-02-17T05:34:48;1.40;;;0.60;;
60896;SDS011;46749;32.932;-117.130;2023-02-17T05:37:15;1.05;;;0.77;;
60896;SDS011;46749;32.932;-117.130;2023-02-17T05:39:41;0.75;;;0.50;;
60896;SDS011;46749;32.932;-117.130;2023-02-17T05:42:29;1.05;;;0.50;;
60896;SDS011;46749;32.932;-117.130;2023-02-17T05:44:58;1.58;;;0.63;;
60896;SDS011;46749;32.932;-117.130;2023-02-17T05:47:24;1.83;;;0.60;;
60896;SDS011;46749;32.932;-117.130;2023-02-17T05:49:50;1.02;;;0.60;;
60896;SDS011;46749;32.932;-117.130;2023-02-17T05:52:16;0.98;;;0.60;;
60896;SDS011;46749;32.932;-117.130;2023-02-17T05:54:43;1.00;;;0.82;;
60896;SDS011;46749;32.932;-117.130;2023-02-17T05:57:09;2.08;;;0.80;;
60896;SDS011;46749;32.932;-117.130;2023-02-17T05:59:35;1.05;;;0.73;;
60896;SDS011;46749;32.932;-117.130;2023-02-17T06:02:20;1.00;;;0.65;;
60896;SDS011;46749;32.932;-117.130;2023-02-17T06:04:46;1.27;;;0.88;;
60896;SDS011;46749;32.932;-117.130;2023-02-17T06:07:12;1.52;;;0.60;;
60896;SDS011;46749;32.932;-117.130;2023-02-17T06:09:39;2.05;;;0.70;;
60896;SDS011;46749;32.932;-117.130;2023-02-17T06:12:05;3.17;;;1.00;;
60896;SDS011;46749;32.932;-117.130;2023-02-17T06:14:31;2.45;;;1.00;;
60896;SDS011;46749;32.932;-117.130;2023-02-17T06:16:57;2.05;;;0.80;;
60896;SDS011;46749;32.932;-117.130;2023-02-17T06:19:24;4.80;;;1.00;;
60896;SDS011;46749;32.932;-117.130;2023-02-17T06:21:51;1.20;;;0.70;;
60896;SDS011;46749;32.932;-117.130;2023-02-17T06:24:35;1.70;;;0.70;;
60896;SDS011;46749;32.932;-117.130;2023-02-17T06:27:01;2.47;;;0.88;;
60896;SDS011;46749;32.932;-117.130;2023-02-17T06:29:28;1.35;;;0.70;;
60896;SDS011;46749;32.932;-117.130;2023-02-17T06:31:54;3.35;;;0.80;;
60896;SDS011;46749;32.932;-117.130;2023-02-17T06:34:20;1.75;;;0.80;;
60896;SDS011;46749;32.932;-117.130;2023-02-17T06:36:46;1.90;;;0.98;;
60896;SDS011;46749;32.932;-117.130;2023-02-17T06:39:12;1.35;;;0.82;;
60896;SDS011;46749;32.932;-117.130;2023-02-17T06:41:39;1.00;;;0.90;;
60896;SDS011;46749;32.932;-117.130;2023-02-17T06:44:07;2.45;;;0.90;;
60896;SDS011;46749;32.932;-117.130;2023-02-17T06:46:33;1.15;;;0.60;;
60896;SDS011;46749;32.932;-117.130;2023-02-17T06:48:59;1.60;;;0.60;;
60896;SDS011;46749;32.932;-117.130;2023-02-17T06:51:27;1.80;;;0.77;;
60896;SDS011;46749;32.932;-117.130;2023-02-17T06:53:53;1.45;;;0.60;;
60896;SDS011;46749;32.932;-117.130;2023-02-17T06:56:20;2.53;;;0.80;;
60896;SDS011;46749;32.932;-117.130;2023-02-17T06:58:46;2.00;;;0.88;;
60896;SDS011;46749;32.932;-117.130;2023-02-17T07:01:20;2.10;;;0.82;;
60896;SDS011;46749;32.932;-117.130;2023-02-17T07:03:50;1.30;;;0.60;;
60896;SDS011;46749;32.932;-117.130;2023-02-17T07:06:17;1.42;;;0.90;;
60896;SDS011;46749;32.932;-117.130;2023-02-17T07:08:43;1.30;;;0.60;;
60896;SDS011;46749;32.932;-117.130;2023-02-17T07:11:11;1.30;;;0.70;;
60896;SDS011;46749;32.932;-117.130;2023-02-17T07:13:39;0.80;;;0.52;;
60896;SDS011;46749;32.932;-117.130;2023-02-17T07:16:07;1.30;;;0.60;;
60896;SDS011;46749;32.932;-117.130;2023-02-17T07:18:35;1.55;;;0.60;;
60896;SDS011;46749;32.932;-117.130;2023-02-17T07:21:02;1.98;;;0.70;;
60896;SDS011;46749;32.932;-117.130;2023-02-17T07:23:30;1.98;;;0.70;;
60896;SDS011;46749;32.932;-117.130;2023-02-17T07:26:00;1.27;;;0.68;;
60896;SDS011;46749;32.932;-117.130;2023-02-17T07:28:27;0.80;;;0.52;;
60896;SDS011;46749;32.932;-117.130;2023-02-17T07:30:53;1.23;;;0.50;;
60896;SDS011;46749;32.932;-117.130;2023-02-17T07:33:19;0.95;;;0.60;;
60896;SDS011;46749;32.932;-117.130;2023-02-17T07:35:46;3.53;;;0.68;;
60896;SDS011;46749;32.932;-117.130;2023-02-17T07:38:12;1.52;;;0.52;;
60896;SDS011;46749;32.932;-117.130;2023-02-17T07:40:39;1.50;;;0.70;;
60896;SDS011;46749;32.932;-117.130;2023-02-17T07:43:05;1.48;;;0.50;;
60896;SDS011;46749;32.932;-117.130;2023-02-17T07:45:31;1.00;;;0.63;;
60896;SDS011;46749;32.932;-117.130;2023-02-17T07:47:58;1.60;;;0.50;;
60896;SDS011;46749;32.932;-117.130;2023-02-17T07:50:24;1.80;;;0.70;;
60896;SDS011;46749;32.932;-117.130;2023-02-17T07:52:50;1.83;;;0.50;;
60896;SDS011;46749;32.932;-117.130;2023-02-17T07:55:16;2.17;;;0.70;;
60896;SDS011;46749;32.932;-117.130;2023-02-17T07:57:43;1.25;;;0.80;;
60896;SDS011;46749;32.932;-117.130;2023-02-17T08:00:09;1.13;;;0.30;;
60896;SDS011;46749;32.932;-117.130;2023-02-17T08:02:35;1.92;;;0.70;;
60896;SDS011;46749;32.932;-117.130;2023-02-17T08:05:02;0.60;;;0.40;;
60896;SDS011;46749;32.932;-117.130;2023-02-17T08:07:28;0.80;;;0.47;;
60896;SDS011;46749;32.932;-117.130;2023-02-17T08:09:54;1.38;;;0.55;;
60896;SDS011;46749;32.932;-117.130;2023-02-17T08:12:39;1.50;;;0.63;;
60896;SDS011;46749;32.932;-117.130;2023-02-17T08:15:23;1.48;;;0.65;;
60896;SDS011;46749;32.932;-117.130;2023-02-17T08:17:49;0.75;;;0.55;;
60896;SDS011;46749;32.932;-117.130;2023-02-17T08:20:17;1.55;;;0.60;;
60896;SDS011;46749;32.932;-117.130;2023-02-17T08:22:43;1.42;;;0.50;;
60896;SDS011;46749;32.932;-117.130;2023-02-17T08:25:09;0.98;;;0.40;;
60896;SDS011;46749;32.932;-117.130;2023-02-17T08:27:36;1.25;;;0.43;;
60896;SDS011;46749;32.932;-117.130;2023-02-17T08:30:02;1.63;;;0.47;;
60896;SDS011;46749;32.932;-117.130;2023-02-17T08:32:28;0.90;;;0.50;;
60896;SDS011;46749;32.932;-117.130;2023-02-17T08:34:55;0.82;;;0.50;;
60896;SDS011;46749;32.932;-117.130;2023-02-17T08:37:21;1.13;;;0.38;;
60896;SDS011;46749;32.932;-117.130;2023-02-17T08:39:48;2.08;;;0.40;;
60896;SDS011;46749;32.932;-117.130;2023-02-17T08:42:14;2.83;;;0.73;;
60896;SDS011;46749;32.932;-117.130;2023-02-17T08:44:42;1.30;;;0.50;;
60896;SDS011;46749;32.932;-117.130;2023-02-17T08:47:08;0.95;;;0.52;;
60896;SDS011;46749;32.932;-117.130;2023-02-17T08:49:34;0.73;;;0.50;;
60896;SDS011;46749;32.932;-117.130;2023-02-17T08:52:01;1.45;;;0.47;;
60896;SDS011;46749;32.932;-117.130;2023-02-17T08:54:27;0.98;;;0.65;;
60896;SDS011;46749;32.932;-117.130;2023-02-17T08:56:54;1.17;;;0.50;;
60896;SDS011;46749;32.932;-117.130;2023-02-17T08:59:20;1.85;;;1.17;;
60896;SDS011;46749;32.932;-117.130;2023-02-17T09:01:46;2.22;;;0.60;;
60896;SDS011;46749;32.932;-117.130;2023-02-17T09:04:13;1.10;;;0.55;;
60896;SDS011;46749;32.932;-117.130;2023-02-17T09:06:44;0.60;;;0.40;;
60896;SDS011;46749;32.932;-117.130;2023-02-17T09:09:17;2.63;;;1.08;;
60896;SDS011;46749;32.932;-117.130;2023-02-17T09:11:46;1.95;;;0.70;;
60896;SDS011;46749;32.932;-117.130;2023-02-17T09:14:13;2.67;;;0.50;;
60896;SDS011;46749;32.932;-117.130;2023-02-17T09:16:39;0.85;;;0.52;;
60896;SDS011;46749;32.932;-117.130;2023-02-17T09:19:05;1.05;;;0.60;;
60896;SDS011;46749;32.932;-117.130;2023-02-17T09:21:31;0.77;;;0.50;;
60896;SDS011;46749;32.932;-117.130;2023-02-17T09:23:58;1.10;;;0.60;;
60896;SDS011;46749;32.932;-117.130;2023-02-17T09:26:24;1.40;;;0.57;;
60896;SDS011;46749;32.932;-117.130;2023-02-17T09:28:50;2.70;;;0.63;;
60896;SDS011;46749;32.932;-117.130;2023-02-17T09:31:18;1.02;;;0.50;;
60896;SDS011;46749;32.932;-117.130;2023-02-17T09:33:50;1.17;;;0.60;;
60896;SDS011;46749;32.932;-117.130;2023-02-17T09:36:20;1.15;;;0.52;;
60896;SDS011;46749;32.932;-117.130;2023-02-17T09:38:48;2.75;;;0.70;;
60896;SDS011;46749;32.932;-117.130;2023-02-17T09:43:56;2.08;;;0.70;;
60896;SDS011;46749;32.932;-117.130;2023-02-17T09:48:55;0.90;;;0.60;;
60896;SDS011;46749;32.932;-117.130;2023-02-17T09:56:41;0.68;;;0.57;;
60896;SDS011;46749;32.932;-117.130;2023-02-17T09:59:21;0.75;;;0.60;;
60896;SDS011;46749;32.932;-117.130;2023-02-17T10:01:52;1.40;;;0.65;;
60896;SDS011;46749;32.932;-117.130;2023-02-17T10:04:22;2.75;;;0.80;;
60896;SDS011;46749;32.932;-117.130;2023-02-17T10:07:00;2.17;;;1.05;;
60896;SDS011;46749;32.932;-117.130;2023-02-17T10:12:08;1.05;;;0.80;;
60896;SDS011;46749;32.932;-117.130;2023-02-17T10:20:13;1.35;;;0.90;;
60896;SDS011;46749;32.932;-117.130;2023-02-17T10:22:43;2.17;;;0.90;;
60896;SDS011;46749;32.932;-117.130;2023-02-17T10:25:16;1.35;;;0.88;;
60896;SDS011;46749;32.932;-117.130;2023-02-17T10:28:11;1.40;;;1.20;;
60896;SDS011;46749;32.932;-117.130;2023-02-17T10:30:50;1.40;;;0.98;;
60896;SDS011;46749;32.932;-117.130;2023-02-17T10:39:15;2.45;;;1.08;;
60896;SDS011;46749;32.932;-117.130;2023-02-17T10:42:35;1.25;;;0.98;;
60896;SDS011;46749;32.932;-117.130;2023-02-17T10:45:49;1.75;;;1.20;;
60896;SDS011;46749;32.932;-117.130;2023-02-17T10:48:06;1.48;;;1.08;;
60896;SDS011;46749;32.932;-117.130;2023-02-17T10:50:36;1.77;;;1.10;;
60896;SDS011;46749;32.932;-117.130;2023-02-17T10:53:13;2.65;;;2.25;;
60896;SDS011;46749;32.932;-117.130;2023-02-17T10:58:39;1.65;;;1.30;;
60896;SDS011;46749;32.932;-117.130;2023-02-17T11:01:14;1.30;;;1.13;;
60896;SDS011;46749;32.932;-117.130;2023-02-17T11:03:41;1.70;;;1.23;;
60896;SDS011;46749;32.932;-117.130;2023-02-17T11:06:18;2.28;;;1.40;;
60896;SDS011;46749;32.932;-117.130;2023-02-17T11:08:55;2.30;;;1.17;;
60896;SDS011;46749;32.932;-117.130;2023-02-17T11:11:26;1.27;;;1.02;;
60896;SDS011;46749;32.932;-117.130;2023-02-17T11:16:55;3.25;;;1.30;;
60896;SDS011;46749;32.932;-117.130;2023-02-17T11:19:24;1.50;;;1.10;;
60896;SDS011;46749;32.932;-117.130;2023-02-17T11:21:54;1.92;;;1.30;;
60896;SDS011;46749;32.932;-117.130;2023-02-17T11:24:24;1.77;;;1.10;;
60896;SDS011;46749;32.932;-117.130;2023-02-17T11:27:01;2.88;;;1.75;;
60896;SDS011;46749;32.932;-117.130;2023-02-17T11:29:29;2.50;;;1.30;;
60896;SDS011;46749;32.932;-117.130;2023-02-17T11:32:04;1.77;;;1.13;;
60896;SDS011;46749;32.932;-117.130;2023-02-17T11:34:34;1.65;;;1.30;;
60896;SDS011;46749;32.932;-117.130;2023-02-17T11:44:56;2.10;;;1.45;;
60896;SDS011;46749;32.932;-117.130;2023-02-17T11:47:28;1.63;;;1.30;;
60896;SDS011;46749;32.932;-117.130;2023-02-17T11:52:58;2.03;;;1.48;;
60896;SDS011;46749;32.932;-117.130;2023-02-17T12:04:10;2.65;;;1.52;;
60896;SDS011;46749;32.932;-117.130;2023-02-17T12:09:34;2.20;;;1.45;;
60896;SDS011;46749;32.932;-117.130;2023-02-17T12:15:03;2.45;;;1.63;;
60896;SDS011;46749;32.932;-117.130;2023-02-17T12:17:50;1.42;;;1.17;;
60896;SDS011;46749;32.932;-117.130;2023-02-17T12:20:44;2.67;;;1.42;;
60896;SDS011;46749;32.932;-117.130;2023-02-17T12:34:42;1.52;;;1.10;;
60896;SDS011;46749;32.932;-117.130;2023-02-17T12:37:03;3.28;;;1.35;;
60896;SDS011;46749;32.932;-117.130;2023-02-17T12:39:40;1.33;;;1.17;;
60896;SDS011;46749;32.932;-117.130;2023-02-17T12:42:13;2.00;;;1.20;;
60896;SDS011;46749;32.932;-117.130;2023-02-17T12:44:50;1.30;;;1.00;;
60896;SDS011;46749;32.932;-117.130;2023-02-17T12:50:25;1.40;;;1.27;;
60896;SDS011;46749;32.932;-117.130;2023-02-17T12:53:14;2.42;;;1.52;;
60896;SDS011;46749;32.932;-117.130;2023-02-17T12:55:58;1.83;;;1.38;;
60896;SDS011;46749;32.932;-117.130;2023-02-17T12:58:29;1.67;;;1.33;;
60896;SDS011;46749;32.932;-117.130;2023-02-17T13:01:06;3.03;;;1.27;;
60896;SDS011;46749;32.932;-117.130;2023-02-17T13:03:39;2.20;;;1.35;;
60896;SDS011;46749;32.932;-117.130;2023-02-17T13:06:51;2.67;;;1.38;;
60896;SDS011;46749;32.932;-117.130;2023-02-17T13:11:51;2.08;;;1.40;;
60896;SDS011;46749;32.932;-117.130;2023-02-17T13:14:27;2.08;;;1.10;;
60896;SDS011;46749;32.932;-117.130;2023-02-17T13:17:03;2.05;;;1.17;;
60896;SDS011;46749;32.932;-117.130;2023-02-17T13:19:31;3.40;;;1.30;;
60896;SDS011;46749;32.932;-117.130;2023-02-17T13:21:59;1.92;;;1.35;;
60896;SDS011;46749;32.932;-117.130;2023-02-17T13:27:19;1.77;;;1.40;;
60896;SDS011;46749;32.932;-117.130;2023-02-17T13:32:35;1.60;;;1.13;;
60896;SDS011;46749;32.932;-117.130;2023-02-17T13:35:10;2.22;;;1.40;;
60896;SDS011;46749;32.932;-117.130;2023-02-17T13:37:54;2.05;;;1.30;;
60896;SDS011;46749;32.932;-117.130;2023-02-17T13:42:51;1.90;;;1.40;;
60896;SDS011;46749;32.932;-117.130;2023-02-17T13:45:39;3.17;;;1.50;;
60896;SDS011;46749;32.932;-117.130;2023-02-17T13:48:14;2.22;;;1.40;;
60896;SDS011;46749;32.932;-117.130;2023-02-17T13:50:52;1.63;;;1.27;;
60896;SDS011;46749;32.932;-117.130;2023-02-17T13:55:55;2.10;;;1.20;;
60896;SDS011;46749;32.932;-117.130;2023-02-17T13:58:44;1.80;;;1.40;;
60896;SDS011;46749;32.932;-117.130;2023-02-17T14:01:15;2.03;;;1.55;;
60896;SDS011;46749;32.932;-117.130;2023-02-17T14:03:50;1.67;;;1.25;;
60896;SDS011;46749;32.932;-117.130;2023-02-17T14:06:21;1.73;;;1.30;;
60896;SDS011;46749;32.932;-117.130;2023-02-17T14:08:54;1.43;;;1.13;;
60896;SDS011;46749;32.932;-117.130;2023-02-17T14:11:22;1.63;;;1.20;;
60896;SDS011;46749;32.932;-117.130;2023-02-17T14:13:50;1.33;;;1.08;;
60896;SDS011;46749;32.932;-117.130;2023-02-17T14:16:41;1.75;;;1.10;;
60896;SDS011;46749;32.932;-117.130;2023-02-17T14:19:10;1.73;;;1.20;;
60896;SDS011;46749;32.932;-117.130;2023-02-17T14:21:39;2.20;;;1.20;;
60896;SDS011;46749;32.932;-117.130;2023-02-17T14:24:28;1.50;;;1.23;;
60896;SDS011;46749;32.932;-117.130;2023-02-17T14:26:56;1.92;;;1.40;;
60896;SDS011;46749;32.932;-117.130;2023-02-17T14:29:36;2.00;;;1.30;;
60896;SDS011;46749;32.932;-117.130;2023-02-17T14:32:04;2.80;;;1.42;;
60896;SDS011;46749;32.932;-117.130;2023-02-17T14:34:32;1.85;;;1.30;;
60896;SDS011;46749;32.932;-117.130;2023-02-17T14:37:17;1.85;;;1.20;;
60896;SDS011;46749;32.932;-117.130;2023-02-17T14:39:50;2.08;;;1.00;;
60896;SDS011;46749;32.932;-117.130;2023-02-17T14:42:16;1.60;;;1.13;;
60896;SDS011;46749;32.932;-117.130;2023-02-17T14:44:43;1.70;;;1.00;;
60896;SDS011;46749;32.932;-117.130;2023-02-17T14:47:09;1.13;;;1.00;;
60896;SDS011;46749;32.932;-117.130;2023-02-17T14:49:35;1.63;;;1.08;;
60896;SDS011;46749;32.932;-117.130;2023-02-17T14:52:09;1.65;;;1.30;;
60896;SDS011;46749;32.932;-117.130;2023-02-17T14:54:43;2.42;;;1.48;;
60896;SDS011;46749;32.932;-117.130;2023-02-17T14:57:10;2.38;;;1.33;;
60896;SDS011;46749;32.932;-117.130;2023-02-17T14:59:39;2.13;;;1.30;;
60896;SDS011;46749;32.932;-117.130;2023-02-17T15:02:23;1.35;;;1.10;;
60896;SDS011;46749;32.932;-117.130;2023-02-17T15:04:50;1.92;;;0.90;;
60896;SDS011;46749;32.932;-117.130;2023-02-17T15:07:16;1.50;;;1.08;;
60896;SDS011;46749;32.932;-117.130;2023-02-17T15:09:44;1.95;;;1.20;;
60896;SDS011;46749;32.932;-117.130;2023-02-17T15:12:12;2.75;;;1.10;;
60896;SDS011;46749;32.932;-117.130;2023-02-17T15:14:40;1.65;;;1.27;;
60896;SDS011;46749;32.932;-117.130;2023-02-17T15:17:07;1.30;;;1.00;;
60896;SDS011;46749;32.932;-117.130;2023-02-17T15:19:33;1.23;;;0.90;;
60896;SDS011;46749;32.932;-117.130;2023-02-17T15:22:00;2.47;;;1.30;;
60896;SDS011;46749;32.932;-117.130;2023-02-17T15:24:29;1.48;;;1.17;;
60896;SDS011;46749;32.932;-117.130;2023-02-17T15:26:58;1.58;;;1.00;;
60896;SDS011;46749;32.932;-117.130;2023-02-17T15:29:25;2.22;;;1.10;;
60896;SDS011;46749;32.932;-117.130;2023-02-17T15:31:52;1.33;;;0.80;;
60896;SDS011;46749;32.932;-117.130;2023-02-17T15:34:20;1.35;;;0.90;;
60896;SDS011;46749;32.932;-117.130;2023-02-17T15:36:50;1.30;;;1.00;;
60896;SDS011;46749;32.932;-117.130;2023-02-17T15:39:17;2.08;;;1.00;;
60896;SDS011;46749;32.932;-117.130;2023-02-17T15:41:46;1.63;;;1.35;;
60896;SDS011;46749;32.932;-117.130;2023-02-17T15:44:17;1.42;;;1.10;;
60896;SDS011;46749;32.932;-117.130;2023-02-17T15:46:49;1.13;;;0.95;;
60896;SDS011;46749;32.932;-117.130;2023-02-17T15:49:18;0.95;;;0.80;;
60896;SDS011;46749;32.932;-117.130;2023-02-17T15:51:45;1.73;;;0.90;;
60896;SDS011;46749;32.932;-117.130;2023-02-17T15:54:12;1.38;;;1.00;;
60896;SDS011;46749;32.932;-117.130;2023-02-17T15:56:50;1.23;;;0.80;;
60896;SDS011;46749;32.932;-117.130;2023-02-17T15:59:21;0.88;;;0.75;;
60896;SDS011;46749;32.932;-117.130;2023-02-17T16:01:52;1.40;;;0.90;;
60896;SDS011;46749;32.932;-117.130;2023-02-17T16:04:25;0.88;;;0.77;;
60896;SDS011;46749;32.932;-117.130;2023-02-17T16:06:52;1.05;;;0.85;;
60896;SDS011;46749;32.932;-117.130;2023-02-17T16:09:18;2.45;;;0.93;;
60896;SDS011;46749;32.932;-117.130;2023-02-17T16:11:46;2.47;;;0.90;;
60896;SDS011;46749;32.932;-117.130;2023-02-17T16:14:26;1.10;;;0.73;;